sensor_id;sensor_type;location;lat;lon;timestamp;temperature;humidity
50162;DHT22;36061;48.116;11.612;2023-02-18T00:00:06;11.30;99.90
50162;DHT22;36061;48.116;11.612;2023-02-18T00:02:34;11.30;99.90
50162;DHT22;36061;48.116;11.612;2023-02-18T00:05:01;11.30;99.90
50162;DHT22;36061;48.116;11.612;2023-02-18T00:07:32;11.30;99.90
50162;DHT22;36061;48.116;11.612;2023-02-18T00:10:00;11.20;99.90
50162;DHT22;36061;48.116;11.612;2023-02-18T00:12:29;11.20;99.90
50162;DHT22;36061;48.116;11.612;2023-02-18T00:14:57;11.20;99.90
50162;DHT22;36061;48.116;11.612;2023-02-18T00:17:24;11.20;99.90
50162;DHT22;36061;48.116;11.612;2023-02-18T00:19:51;11.20;99.90
50162;DHT22;36061;48.116;11.612;2023-02-18T00:22:19;11.20;99.90
50162;DHT22;36061;48.116;11.612;2023-02-18T00:24:46;11.10;99.90
50162;DHT22;36061;48.116;11.612;2023-02-18T00:27:13;11.10;99.90
50162;DHT22;36061;48.116;11.612;2023-02-18T00:29:42;11.10;99.90
50162;DHT22;36061;48.116;11.612;2023-02-18T00:32:09;11.10;99.90
50162;DHT22;36061;48.116;11.612;2023-02-18T00:34:36;11.10;99.90
50162;DHT22;36061;48.116;11.612;2023-02-18T00:37:04;11.10;99.90
50162;DHT22;36061;48.116;11.612;2023-02-18T00:39:31;11.10;99.90
50162;DHT22;36061;48.116;11.612;2023-02-18T00:41:58;11.00;99.90
50162;DHT22;36061;48.116;11.612;2023-02-18T00:44:26;11.00;99.90
50162;DHT22;36061;48.116;11.612;2023-02-18T00:46:54;10.90;99.90
50162;DHT22;36061;48.116;11.612;2023-02-18T00:49:21;11.00;99.90
50162;DHT22;36061;48.116;11.612;2023-02-18T00:51:48;11.00;99.90
50162;DHT22;36061;48.116;11.612;2023-02-18T00:54:16;10.90;99.90
50162;DHT22;36061;48.116;11.612;2023-02-18T00:56:43;10.90;99.90
50162;DHT22;36061;48.116;11.612;2023-02-18T00:59:10;10.90;99.90
50162;DHT22;36061;48.116;11.612;2023-02-18T01:01:37;10.90;99.90
50162;DHT22;36061;48.116;11.612;2023-02-18T01:04:08;10.80;99.90
50162;DHT22;36061;48.116;11.612;2023-02-18T01:06:36;10.80;99.90
50162;DHT22;36061;48.116;11.612;2023-02-18T01:09:03;10.70;99.90
50162;DHT22;36061;48.116;11.612;2023-02-18T01:11:31;10.70;99.90
50162;DHT22;36061;48.116;11.612;2023-02-18T01:13:58;10.60;99.90
50162;DHT22;36061;48.116;11.612;2023-02-18T01:16:28;10.70;99.90
50162;DHT22;36061;48.116;11.612;2023-02-18T01:18:55;10.70;99.90
50162;DHT22;36061;48.116;11.612;2023-02-18T01:21:26;10.70;99.90
50162;DHT22;36061;48.116;11.612;2023-02-18T01:23:53;10.80;99.90
50162;DHT22;36061;48.116;11.612;2023-02-18T01:26:21;10.80;99.90
50162;DHT22;36061;48.116;11.612;2023-02-18T01:28:48;10.80;99.90
50162;DHT22;36061;48.116;11.612;2023-02-18T01:31:15;10.70;99.90
50162;DHT22;36061;48.116;11.612;2023-02-18T01:33:43;10.70;99.90
50162;DHT22;36061;48.116;11.612;2023-02-18T01:36:10;10.70;99.90
50162;DHT22;36061;48.116;11.612;2023-02-18T01:38:39;10.60;99.90
50162;DHT22;36061;48.116;11.612;2023-02-18T01:41:07;10.60;99.90
50162;DHT22;36061;48.116;11.612;2023-02-18T01:43:34;10.60;99.90
50162;DHT22;36061;48.116;11.612;2023-02-18T01:46:11;10.70;99.90
50162;DHT22;36061;48.116;11.612;2023-02-18T01:48:42;10.70;99.90
50162;DHT22;36061;48.116;11.612;2023-02-18T01:51:16;10.70;99.90
50162;DHT22;36061;48.116;11.612;2023-02-18T01:53:50;10.60;99.90
50162;DHT22;36061;48.116;11.612;2023-02-18T01:56:23;10.60;99.90
50162;DHT22;36061;48.116;11.612;2023-02-18T01:58:53;10.60;99.90
50162;DHT22;36061;48.116;11.612;2023-02-18T02:01:21;10.60;99.90
50162;DHT22;36061;48.116;11.612;2023-02-18T02:03:48;10.60;99.90
50162;DHT22;36061;48.116;11.612;2023-02-18T02:06:17;10.60;99.90
50162;DHT22;36061;48.116;11.612;2023-02-18T02:08:53;10.60;99.90
50162;DHT22;36061;48.116;11.612;2023-02-18T02:11:28;10.70;99.90
50162;DHT22;36061;48.116;11.612;2023-02-18T02:14:09;10.70;99.90
50162;DHT22;36061;48.116;11.612;2023-02-18T02:16:49;10.80;99.90
50162;DHT22;36061;48.116;11.612;2023-02-18T02:19:42;10.80;99.90
50162;DHT22;36061;48.116;11.612;2023-02-18T02:22:43;10.80;99.90
50162;DHT22;36061;48.116;11.612;2023-02-18T02:25:23;10.80;99.90
50162;DHT22;36061;48.116;11.612;2023-02-18T02:28:16;10.80;99.90
50162;DHT22;36061;48.116;11.612;2023-02-18T02:34:03;10.90;99.90
50162;DHT22;36061;48.116;11.612;2023-02-18T02:36:38;10.80;99.90
50162;DHT22;36061;48.116;11.612;2023-02-18T02:39:12;10.80;99.90
50162;DHT22;36061;48.116;11.612;2023-02-18T02:41:45;10.80;99.90
50162;DHT22;36061;48.116;11.612;2023-02-18T02:44:20;10.80;99.90
50162;DHT22;36061;48.116;11.612;2023-02-18T02:46:51;10.90;99.90
50162;DHT22;36061;48.116;11.612;2023-02-18T02:49:27;10.90;99.90
50162;DHT22;36061;48.116;11.612;2023-02-18T02:52:03;10.90;99.90
50162;DHT22;36061;48.116;11.612;2023-02-18T02:54:31;10.90;99.90
50162;DHT22;36061;48.116;11.612;2023-02-18T02:57:36;10.90;99.90
50162;DHT22;36061;48.116;11.612;2023-02-18T03:00:09;10.90;99.90
50162;DHT22;36061;48.116;11.612;2023-02-18T03:02:45;10.90;99.90
50162;DHT22;36061;48.116;11.612;2023-02-18T03:05:24;10.90;99.90
50162;DHT22;36061;48.116;11.612;2023-02-18T03:08:11;10.90;99.90
50162;DHT22;36061;48.116;11.612;2023-02-18T03:10:49;10.90;99.90
50162;DHT22;36061;48.116;11.612;2023-02-18T03:13:29;11.00;99.90
50162;DHT22;36061;48.116;11.612;2023-02-18T03:16:10;10.90;99.90
50162;DHT22;36061;48.116;11.612;2023-02-18T03:18:41;10.90;99.90
50162;DHT22;36061;48.116;11.612;2023-02-18T03:21:12;10.90;99.90
50162;DHT22;36061;48.116;11.612;2023-02-18T03:23:47;10.90;99.90
50162;DHT22;36061;48.116;11.612;2023-02-18T03:26:16;10.90;99.90
50162;DHT22;36061;48.116;11.612;2023-02-18T03:28:46;10.90;99.90
50162;DHT22;36061;48.116;11.612;2023-02-18T03:31:17;10.90;99.90
50162;DHT22;36061;48.116;11.612;2023-02-18T03:33:50;10.90;99.90
50162;DHT22;36061;48.116;11.612;2023-02-18T03:36:19;10.90;99.90
50162;DHT22;36061;48.116;11.612;2023-02-18T03:38:53;10.90;99.90
50162;DHT22;36061;48.116;11.612;2023-02-18T03:41:22;11.00;99.90
50162;DHT22;36061;48.116;11.612;2023-02-18T03:43:49;11.00;99.90
50162;DHT22;36061;48.116;11.612;2023-02-18T03:46:17;11.00;99.90
50162;DHT22;36061;48.116;11.612;2023-02-18T03:48:44;11.00;99.90
50162;DHT22;36061;48.116;11.612;2023-02-18T03:51:12;10.90;99.90
50162;DHT22;36061;48.116;11.612;2023-02-18T03:53:39;10.90;99.90
50162;DHT22;36061;48.116;11.612;2023-02-18T03:56:08;10.80;99.90
50162;DHT22;36061;48.116;11.612;2023-02-18T03:58:35;10.90;99.90
50162;DHT22;36061;48.116;11.612;2023-02-18T04:01:02;10.90;99.90
50162;DHT22;36061;48.116;11.612;2023-02-18T04:03:30;10.90;99.90
50162;DHT22;36061;48.116;11.612;2023-02-18T04:05:57;10.90;99.90
50162;DHT22;36061;48.116;11.612;2023-02-18T04:08:24;10.90;99.90
50162;DHT22;36061;48.116;11.612;2023-02-18T04:10:52;10.80;99.90
50162;DHT22;36061;48.116;11.612;2023-02-18T04:13:20;10.90;99.90
50162;DHT22;36061;48.116;11.612;2023-02-18T04:15:48;10.90;99.90
50162;DHT22;36061;48.116;11.612;2023-02-18T04:18:15;10.90;99.90
50162;DHT22;36061;48.116;11.612;2023-02-18T04:20:42;10.80;99.90
50162;DHT22;36061;48.116;11.612;2023-02-18T04:23:11;10.80;99.90
50162;DHT22;36061;48.116;11.612;2023-02-18T04:25:38;10.80;99.90
50162;DHT22;36061;48.116;11.612;2023-02-18T04:28:05;10.80;99.90
50162;DHT22;36061;48.116;11.612;2023-02-18T04:30:37;10.80;99.90
50162;DHT22;36061;48.116;11.612;2023-02-18T04:33:04;10.70;99.90
50162;DHT22;36061;48.116;11.612;2023-02-18T04:35:31;10.80;99.90
50162;DHT22;36061;48.116;11.612;2023-02-18T04:37:59;10.80;99.90
50162;DHT22;36061;48.116;11.612;2023-02-18T04:40:26;10.80;99.90
50162;DHT22;36061;48.116;11.612;2023-02-18T04:42:55;10.80;99.90
50162;DHT22;36061;48.116;11.612;2023-02-18T04:45:23;10.80;99.90
50162;DHT22;36061;48.116;11.612;2023-02-18T04:47:52;10.80;99.90
50162;DHT22;36061;48.116;11.612;2023-02-18T04:50:20;10.70;99.90
50162;DHT22;36061;48.116;11.612;2023-02-18T04:52:47;10.70;99.90
50162;DHT22;36061;48.116;11.612;2023-02-18T04:55:15;10.70;99.90
50162;DHT22;36061;48.116;11.612;2023-02-18T04:57:42;10.70;99.90
50162;DHT22;36061;48.116;11.612;2023-02-18T05:00:13;10.70;99.90
50162;DHT22;36061;48.116;11.612;2023-02-18T05:02:41;10.70;99.90
50162;DHT22;36061;48.116;11.612;2023-02-18T05:05:09;10.70;99.90
50162;DHT22;36061;48.116;11.612;2023-02-18T05:07:37;10.70;99.90
50162;DHT22;36061;48.116;11.612;2023-02-18T05:10:06;10.70;99.90
50162;DHT22;36061;48.116;11.612;2023-02-18T05:12:33;10.80;99.90
50162;DHT22;36061;48.116;11.612;2023-02-18T05:15:00;10.70;99.90
50162;DHT22;36061;48.116;11.612;2023-02-18T05:17:28;10.60;99.90
50162;DHT22;36061;48.116;11.612;2023-02-18T05:19:55;10.60;99.90
50162;DHT22;36061;48.116;11.612;2023-02-18T05:22:24;10.60;99.90
50162;DHT22;36061;48.116;11.612;2023-02-18T05:24:51;10.70;99.90
50162;DHT22;36061;48.116;11.612;2023-02-18T05:27:18;10.60;99.90
50162;DHT22;36061;48.116;11.612;2023-02-18T05:29:46;10.70;99.90
50162;DHT22;36061;48.116;11.612;2023-02-18T05:32:13;10.70;99.90
50162;DHT22;36061;48.116;11.612;2023-02-18T05:34:40;10.60;99.90
50162;DHT22;36061;48.116;11.612;2023-02-18T05:37:07;10.70;99.90
50162;DHT22;36061;48.116;11.612;2023-02-18T05:39:36;10.80;99.90
50162;DHT22;36061;48.116;11.612;2023-02-18T05:42:04;10.80;99.90
50162;DHT22;36061;48.116;11.612;2023-02-18T05:44:31;10.70;99.90
50162;DHT22;36061;48.116;11.612;2023-02-18T05:46:59;10.70;99.90
50162;DHT22;36061;48.116;11.612;2023-02-18T05:49:27;10.70;99.90
50162;DHT22;36061;48.116;11.612;2023-02-18T05:51:55;10.70;99.90
50162;DHT22;36061;48.116;11.612;2023-02-18T05:54:22;10.80;99.90
50162;DHT22;36061;48.116;11.612;2023-02-18T05:56:51;10.70;99.90
50162;DHT22;36061;48.116;11.612;2023-02-18T05:59:19;10.70;99.90
50162;DHT22;36061;48.116;11.612;2023-02-18T06:01:47;10.70;99.90
50162;DHT22;36061;48.116;11.612;2023-02-18T06:04:18;10.80;99.90
50162;DHT22;36061;48.116;11.612;2023-02-18T06:06:46;10.80;99.90
50162;DHT22;36061;48.116;11.612;2023-02-18T06:09:13;10.80;99.90
50162;DHT22;36061;48.116;11.612;2023-02-18T06:11:40;10.70;99.90
50162;DHT22;36061;48.116;11.612;2023-02-18T06:14:09;10.70;99.90
50162;DHT22;36061;48.116;11.612;2023-02-18T06:16:37;10.80;99.90
50162;DHT22;36061;48.116;11.612;2023-02-18T06:19:04;10.80;99.90
50162;DHT22;36061;48.116;11.612;2023-02-18T06:21:31;10.80;99.90
50162;DHT22;36061;48.116;11.612;2023-02-18T06:23:59;10.80;99.90
50162;DHT22;36061;48.116;11.612;2023-02-18T06:26:26;10.80;99.90
50162;DHT22;36061;48.116;11.612;2023-02-18T06:28:53;10.70;99.90
50162;DHT22;36061;48.116;11.612;2023-02-18T06:31:22;10.80;99.90
50162;DHT22;36061;48.116;11.612;2023-02-18T06:33:49;10.80;99.90
50162;DHT22;36061;48.116;11.612;2023-02-18T06:36:16;10.90;99.90
50162;DHT22;36061;48.116;11.612;2023-02-18T06:38:44;10.90;99.90
50162;DHT22;36061;48.116;11.612;2023-02-18T06:41:12;10.90;99.90
50162;DHT22;36061;48.116;11.612;2023-02-18T06:43:40;10.80;99.90
50162;DHT22;36061;48.116;11.612;2023-02-18T06:46:07;10.80;99.90
50162;DHT22;36061;48.116;11.612;2023-02-18T06:48:35;10.90;99.90
50162;DHT22;36061;48.116;11.612;2023-02-18T06:51:04;10.90;99.90
50162;DHT22;36061;48.116;11.612;2023-02-18T06:53:31;10.80;99.90
50162;DHT22;36061;48.116;11.612;2023-02-18T06:55:59;10.90;99.90
50162;DHT22;36061;48.116;11.612;2023-02-18T06:58:26;10.90;99.90
50162;DHT22;36061;48.116;11.612;2023-02-18T07:00:53;10.90;99.90
50162;DHT22;36061;48.116;11.612;2023-02-18T07:03:20;11.00;99.90
50162;DHT22;36061;48.116;11.612;2023-02-18T07:05:49;11.00;99.90
50162;DHT22;36061;48.116;11.612;2023-02-18T07:08:17;10.90;99.90
50162;DHT22;36061;48.116;11.612;2023-02-18T07:10:44;11.00;99.90
50162;DHT22;36061;48.116;11.612;2023-02-18T07:13:12;11.00;99.90
50162;DHT22;36061;48.116;11.612;2023-02-18T07:15:39;11.00;99.90
50162;DHT22;36061;48.116;11.612;2023-02-18T07:18:07;11.10;99.90
50162;DHT22;36061;48.116;11.612;2023-02-18T07:20:34;11.10;99.90
50162;DHT22;36061;48.116;11.612;2023-02-18T07:23:02;11.20;99.90
50162;DHT22;36061;48.116;11.612;2023-02-18T07:25:30;11.20;99.90
50162;DHT22;36061;48.116;11.612;2023-02-18T07:27:57;11.20;99.90
50162;DHT22;36061;48.116;11.612;2023-02-18T07:30:24;11.20;99.90
50162;DHT22;36061;48.116;11.612;2023-02-18T07:32:51;11.20;99.90
50162;DHT22;36061;48.116;11.612;2023-02-18T07:35:19;11.20;99.90
50162;DHT22;36061;48.116;11.612;2023-02-18T07:37:47;11.20;99.90
50162;DHT22;36061;48.116;11.612;2023-02-18T07:40:18;11.30;99.90
50162;DHT22;36061;48.116;11.612;2023-02-18T07:42:45;11.30;99.90
50162;DHT22;36061;48.116;11.612;2023-02-18T07:45:12;11.30;99.90
50162;DHT22;36061;48.116;11.612;2023-02-18T07:47:40;11.30;99.90
50162;DHT22;36061;48.116;11.612;2023-02-18T07:50:08;11.30;99.90
50162;DHT22;36061;48.116;11.612;2023-02-18T07:52:36;11.20;99.90
50162;DHT22;36061;48.116;11.612;2023-02-18T07:55:03;11.20;99.90
50162;DHT22;36061;48.116;11.612;2023-02-18T07:57:32;11.20;99.90
50162;DHT22;36061;48.116;11.612;2023-02-18T08:00:19;11.20;99.90
50162;DHT22;36061;48.116;11.612;2023-02-18T08:02:47;11.20;99.90
50162;DHT22;36061;48.116;11.612;2023-02-18T08:05:14;11.10;99.90
50162;DHT22;36061;48.116;11.612;2023-02-18T08:07:41;11.20;99.90
50162;DHT22;36061;48.116;11.612;2023-02-18T08:10:09;11.20;99.90
50162;DHT22;36061;48.116;11.612;2023-02-18T08:12:37;11.20;99.90
50162;DHT22;36061;48.116;11.612;2023-02-18T08:15:05;11.20;99.90
50162;DHT22;36061;48.116;11.612;2023-02-18T08:17:32;11.20;99.90
50162;DHT22;36061;48.116;11.612;2023-02-18T08:19:59;11.40;99.90
50162;DHT22;36061;48.116;11.612;2023-02-18T08:22:27;11.40;99.90
50162;DHT22;36061;48.116;11.612;2023-02-18T08:24:54;11.40;99.90
50162;DHT22;36061;48.116;11.612;2023-02-18T08:27:22;11.50;99.90
50162;DHT22;36061;48.116;11.612;2023-02-18T08:29:51;11.40;99.90
50162;DHT22;36061;48.116;11.612;2023-02-18T08:32:18;11.40;99.90
50162;DHT22;36061;48.116;11.612;2023-02-18T08:34:45;11.50;99.90
50162;DHT22;36061;48.116;11.612;2023-02-18T08:37:13;11.50;99.90
50162;DHT22;36061;48.116;11.612;2023-02-18T08:39:40;11.40;99.90
50162;DHT22;36061;48.116;11.612;2023-02-18T08:42:07;11.30;99.90
50162;DHT22;36061;48.116;11.612;2023-02-18T08:44:34;11.40;99.90
50162;DHT22;36061;48.116;11.612;2023-02-18T08:47:03;11.40;99.90
50162;DHT22;36061;48.116;11.612;2023-02-18T08:49:30;11.40;99.90
50162;DHT22;36061;48.116;11.612;2023-02-18T08:51:58;11.50;99.90
50162;DHT22;36061;48.116;11.612;2023-02-18T08:54:25;11.50;99.90
50162;DHT22;36061;48.116;11.612;2023-02-18T08:56:53;11.60;99.90
50162;DHT22;36061;48.116;11.612;2023-02-18T08:59:22;11.70;99.90
50162;DHT22;36061;48.116;11.612;2023-02-18T09:01:50;11.90;99.90
50162;DHT22;36061;48.116;11.612;2023-02-18T09:04:18;11.90;99.90
50162;DHT22;36061;48.116;11.612;2023-02-18T09:06:46;11.90;99.90
50162;DHT22;36061;48.116;11.612;2023-02-18T09:09:15;11.90;99.90
50162;DHT22;36061;48.116;11.612;2023-02-18T09:11:43;11.90;99.90
50162;DHT22;36061;48.116;11.612;2023-02-18T09:14:10;11.90;99.90
50162;DHT22;36061;48.116;11.612;2023-02-18T09:16:38;11.80;99.90
50162;DHT22;36061;48.116;11.612;2023-02-18T09:19:06;11.80;99.90
50162;DHT22;36061;48.116;11.612;2023-02-18T09:21:35;11.90;99.90
50162;DHT22;36061;48.116;11.612;2023-02-18T09:24:02;12.00;99.90
50162;DHT22;36061;48.116;11.612;2023-02-18T09:26:30;12.00;99.90
50162;DHT22;36061;48.116;11.612;2023-02-18T09:28:58;12.00;99.90
50162;DHT22;36061;48.116;11.612;2023-02-18T09:31:26;12.10;99.90
50162;DHT22;36061;48.116;11.612;2023-02-18T09:33:55;12.00;99.90
50162;DHT22;36061;48.116;11.612;2023-02-18T09:36:23;12.00;99.90
50162;DHT22;36061;48.116;11.612;2023-02-18T09:38:52;12.00;99.90
50162;DHT22;36061;48.116;11.612;2023-02-18T09:41:28;12.00;99.90
50162;DHT22;36061;48.116;11.612;2023-02-18T09:43:58;12.10;99.90
50162;DHT22;36061;48.116;11.612;2023-02-18T09:46:31;12.10;99.90
50162;DHT22;36061;48.116;11.612;2023-02-18T09:49:01;12.10;99.90
50162;DHT22;36061;48.116;11.612;2023-02-18T09:51:29;12.20;99.90
50162;DHT22;36061;48.116;11.612;2023-02-18T09:53:58;12.20;99.90
50162;DHT22;36061;48.116;11.612;2023-02-18T09:56:27;12.20;99.90
50162;DHT22;36061;48.116;11.612;2023-02-18T09:58:57;12.30;99.90
50162;DHT22;36061;48.116;11.612;2023-02-18T10:01:29;12.30;99.90
50162;DHT22;36061;48.116;11.612;2023-02-18T10:04:01;12.40;99.90
50162;DHT22;36061;48.116;11.612;2023-02-18T10:06:31;12.40;99.90
50162;DHT22;36061;48.116;11.612;2023-02-18T10:09:03;12.50;99.90
50162;DHT22;36061;48.116;11.612;2023-02-18T10:11:33;12.60;99.90
50162;DHT22;36061;48.116;11.612;2023-02-18T10:14:01;12.60;99.90
50162;DHT22;36061;48.116;11.612;2023-02-18T10:16:29;12.70;99.90
50162;DHT22;36061;48.116;11.612;2023-02-18T10:19:00;12.80;99.90
50162;DHT22;36061;48.116;11.612;2023-02-18T10:21:32;12.80;99.90
50162;DHT22;36061;48.116;11.612;2023-02-18T10:24:05;12.90;99.90
50162;DHT22;36061;48.116;11.612;2023-02-18T10:26:36;12.80;99.90
50162;DHT22;36061;48.116;11.612;2023-02-18T10:29:12;12.80;99.90
50162;DHT22;36061;48.116;11.612;2023-02-18T10:31:44;12.80;99.90
50162;DHT22;36061;48.116;11.612;2023-02-18T10:34:17;12.80;99.90
50162;DHT22;36061;48.116;11.612;2023-02-18T10:36:52;12.80;99.90
50162;DHT22;36061;48.116;11.612;2023-02-18T10:39:33;12.90;99.90
50162;DHT22;36061;48.116;11.612;2023-02-18T10:42:16;12.90;99.90
50162;DHT22;36061;48.116;11.612;2023-02-18T10:44:54;13.00;99.90
50162;DHT22;36061;48.116;11.612;2023-02-18T10:47:35;13.00;99.90
50162;DHT22;36061;48.116;11.612;2023-02-18T10:50:09;13.00;99.90
50162;DHT22;36061;48.116;11.612;2023-02-18T10:52:39;13.00;99.90
50162;DHT22;36061;48.116;11.612;2023-02-18T10:55:10;13.10;99.90
50162;DHT22;36061;48.116;11.612;2023-02-18T10:57:46;13.10;99.90
50162;DHT22;36061;48.116;11.612;2023-02-18T11:00:18;13.20;99.90
50162;DHT22;36061;48.116;11.612;2023-02-18T11:03:03;13.30;99.90
50162;DHT22;36061;48.116;11.612;2023-02-18T11:05:36;13.30;99.90
50162;DHT22;36061;48.116;11.612;2023-02-18T11:08:08;13.40;99.90
50162;DHT22;36061;48.116;11.612;2023-02-18T11:10:41;13.50;99.90
50162;DHT22;36061;48.116;11.612;2023-02-18T11:13:11;13.60;99.90
50162;DHT22;36061;48.116;11.612;2023-02-18T11:15:53;13.70;99.90
50162;DHT22;36061;48.116;11.612;2023-02-18T11:18:29;13.80;99.90
50162;DHT22;36061;48.116;11.612;2023-02-18T11:21:00;13.80;99.90
50162;DHT22;36061;48.116;11.612;2023-02-18T11:23:28;13.80;99.90
50162;DHT22;36061;48.116;11.612;2023-02-18T11:25:59;13.90;99.90
50162;DHT22;36061;48.116;11.612;2023-02-18T11:28:38;13.90;99.90
50162;DHT22;36061;48.116;11.612;2023-02-18T11:31:06;13.90;99.90
50162;DHT22;36061;48.116;11.612;2023-02-18T11:33:36;14.00;99.90
50162;DHT22;36061;48.116;11.612;2023-02-18T11:36:15;14.00;99.90
50162;DHT22;36061;48.116;11.612;2023-02-18T11:38:46;14.20;99.90
50162;DHT22;36061;48.116;11.612;2023-02-18T11:41:18;14.20;99.90
50162;DHT22;36061;48.116;11.612;2023-02-18T11:43:49;14.30;99.90
50162;DHT22;36061;48.116;11.612;2023-02-18T11:46:19;14.40;99.90
50162;DHT22;36061;48.116;11.612;2023-02-18T11:48:48;14.40;99.90
50162;DHT22;36061;48.116;11.612;2023-02-18T11:51:18;14.40;99.90
50162;DHT22;36061;48.116;11.612;2023-02-18T11:53:59;14.40;99.90
50162;DHT22;36061;48.116;11.612;2023-02-18T11:56:30;14.40;99.90
50162;DHT22;36061;48.116;11.612;2023-02-18T11:58:59;14.40;99.90
50162;DHT22;36061;48.116;11.612;2023-02-18T12:01:37;14.40;99.90
50162;DHT22;36061;48.116;11.612;2023-02-18T12:04:12;14.40;99.90
50162;DHT22;36061;48.116;11.612;2023-02-18T12:06:47;14.40;99.90
50162;DHT22;36061;48.116;11.612;2023-02-18T12:09:27;14.40;99.90
50162;DHT22;36061;48.116;11.612;2023-02-18T12:11:59;14.40;99.90
50162;DHT22;36061;48.116;11.612;2023-02-18T12:14:27;14.30;99.90
50162;DHT22;36061;48.116;11.612;2023-02-18T12:17:10;14.40;99.90
50162;DHT22;36061;48.116;11.612;2023-02-18T12:19:59;14.30;99.90
50162;DHT22;36061;48.116;11.612;2023-02-18T12:22:36;13.70;99.90
50162;DHT22;36061;48.116;11.612;2023-02-18T12:25:24;14.40;99.90
50162;DHT22;36061;48.116;11.612;2023-02-18T12:28:05;14.40;99.90
50162;DHT22;36061;48.116;11.612;2023-02-18T12:31:02;14.60;99.90
50162;DHT22;36061;48.116;11.612;2023-02-18T12:33:37;14.60;99.90
50162;DHT22;36061;48.116;11.612;2023-02-18T12:36:15;14.70;99.90
50162;DHT22;36061;48.116;11.612;2023-02-18T12:39:04;14.70;99.90
50162;DHT22;36061;48.116;11.612;2023-02-18T12:41:43;14.60;99.90
50162;DHT22;36061;48.116;11.612;2023-02-18T12:44:23;14.60;99.90
50162;DHT22;36061;48.116;11.612;2023-02-18T12:47:15;14.60;99.90
50162;DHT22;36061;48.116;11.612;2023-02-18T12:50:11;14.60;99.90
50162;DHT22;36061;48.116;11.612;2023-02-18T12:52:50;14.60;99.90
50162;DHT22;36061;48.116;11.612;2023-02-18T12:55:41;14.60;99.90
50162;DHT22;36061;48.116;11.612;2023-02-18T12:58:20;14.50;99.90
50162;DHT22;36061;48.116;11.612;2023-02-18T13:01:15;14.50;99.90
50162;DHT22;36061;48.116;11.612;2023-02-18T13:03:59;14.50;99.90
50162;DHT22;36061;48.116;11.612;2023-02-18T13:06:41;14.50;99.90
50162;DHT22;36061;48.116;11.612;2023-02-18T13:09:22;14.60;99.90
50162;DHT22;36061;48.116;11.612;2023-02-18T13:11:55;14.60;99.90
50162;DHT22;36061;48.116;11.612;2023-02-18T13:14:28;14.60;99.90
50162;DHT22;36061;48.116;11.612;2023-02-18T13:16:59;14.60;99.90
50162;DHT22;36061;48.116;11.612;2023-02-18T13:19:30;14.60;99.90
50162;DHT22;36061;48.116;11.612;2023-02-18T13:22:01;14.60;99.90
50162;DHT22;36061;48.116;11.612;2023-02-18T13:24:32;14.50;99.90
50162;DHT22;36061;48.116;11.612;2023-02-18T13:27:13;14.60;99.90
50162;DHT22;36061;48.116;11.612;2023-02-18T13:29:46;14.60;99.90
50162;DHT22;36061;48.116;11.612;2023-02-18T13:32:21;14.60;99.90
50162;DHT22;36061;48.116;11.612;2023-02-18T13:34:56;14.60;99.90
50162;DHT22;36061;48.116;11.612;2023-02-18T13:37:32;14.60;99.90
50162;DHT22;36061;48.116;11.612;2023-02-18T13:40:02;14.60;99.90
50162;DHT22;36061;48.116;11.612;2023-02-18T13:42:36;14.50;99.90
50162;DHT22;36061;48.116;11.612;2023-02-18T13:45:31;14.50;99.90
50162;DHT22;36061;48.116;11.612;2023-02-18T13:48:00;14.50;99.90
50162;DHT22;36061;48.116;11.612;2023-02-18T13:50:42;14.50;99.90
50162;DHT22;36061;48.116;11.612;2023-02-18T13:53:19;14.40;99.90
50162;DHT22;36061;48.116;11.612;2023-02-18T13:55:59;14.30;99.90
50162;DHT22;36061;48.116;11.612;2023-02-18T13:58:30;14.20;99.90
50162;DHT22;36061;48.116;11.612;2023-02-18T14:01:01;14.10;99.90
50162;DHT22;36061;48.116;11.612;2023-02-18T14:03:52;14.00;99.90
50162;DHT22;36061;48.116;11.612;2023-02-18T14:06:22;14.00;99.90
50162;DHT22;36061;48.116;11.612;2023-02-18T14:08:51;14.00;99.90
50162;DHT22;36061;48.116;11.612;2023-02-18T14:11:33;13.90;99.90
50162;DHT22;36061;48.116;11.612;2023-02-18T14:17:33;14.00;99.90
50162;DHT22;36061;48.116;11.612;2023-02-18T14:23:41;13.90;99.90
50162;DHT22;36061;48.116;11.612;2023-02-18T14:26:17;13.80;99.90
50162;DHT22;36061;48.116;11.612;2023-02-18T14:28:54;13.90;99.90
50162;DHT22;36061;48.116;11.612;2023-02-18T14:31:40;13.90;99.90
50162;DHT22;36061;48.116;11.612;2023-02-18T14:34:43;13.90;99.90
50162;DHT22;36061;48.116;11.612;2023-02-18T14:37:26;13.80;99.90
50162;DHT22;36061;48.116;11.612;2023-02-18T14:40:03;13.80;99.90
50162;DHT22;36061;48.116;11.612;2023-02-18T14:42:41;13.70;99.90
50162;DHT22;36061;48.116;11.612;2023-02-18T14:45:20;13.60;99.90
50162;DHT22;36061;48.116;11.612;2023-02-18T14:48:16;13.60;99.90
50162;DHT22;36061;48.116;11.612;2023-02-18T14:50:47;13.60;99.90
50162;DHT22;36061;48.116;11.612;2023-02-18T14:53:19;13.60;99.90
50162;DHT22;36061;48.116;11.612;2023-02-18T14:55:49;13.70;99.90
50162;DHT22;36061;48.116;11.612;2023-02-18T14:58:27;13.60;99.90
50162;DHT22;36061;48.116;11.612;2023-02-18T15:00:55;13.70;99.90
50162;DHT22;36061;48.116;11.612;2023-02-18T15:03:25;13.60;99.90
50162;DHT22;36061;48.116;11.612;2023-02-18T15:05:53;13.50;99.90
50162;DHT22;36061;48.116;11.612;2023-02-18T15:08:22;13.50;99.90
50162;DHT22;36061;48.116;11.612;2023-02-18T15:10:52;13.50;99.90
50162;DHT22;36061;48.116;11.612;2023-02-18T15:13:25;13.40;99.90
50162;DHT22;36061;48.116;11.612;2023-02-18T15:15:55;13.40;99.90
50162;DHT22;36061;48.116;11.612;2023-02-18T15:18:28;13.40;99.90
50162;DHT22;36061;48.116;11.612;2023-02-18T15:20:58;13.30;99.90
50162;DHT22;36061;48.116;11.612;2023-02-18T15:23:28;13.30;99.90
50162;DHT22;36061;48.116;11.612;2023-02-18T15:25:56;13.30;99.90
50162;DHT22;36061;48.116;11.612;2023-02-18T15:28:26;13.30;99.90
50162;DHT22;36061;48.116;11.612;2023-02-18T15:30:56;13.30;99.90
50162;DHT22;36061;48.116;11.612;2023-02-18T15:33:23;13.30;99.90
50162;DHT22;36061;48.116;11.612;2023-02-18T15:35:50;13.30;99.90
50162;DHT22;36061;48.116;11.612;2023-02-18T15:38:19;13.30;99.90
50162;DHT22;36061;48.116;11.612;2023-02-18T15:40:50;13.30;99.90
50162;DHT22;36061;48.116;11.612;2023-02-18T15:43:20;13.30;99.90
50162;DHT22;36061;48.116;11.612;2023-02-18T15:45:50;13.20;99.90
50162;DHT22;36061;48.116;11.612;2023-02-18T15:48:27;13.20;99.90
50162;DHT22;36061;48.116;11.612;2023-02-18T15:50:56;13.20;99.90